Time,TemperatureF,DewpointF,PressureIn,WindDirection,WindDirectionDegrees,WindSpeedMPH,WindSpeedGustMPH,Humidity,HourlyPrecipIn,Conditions,Clouds,dailyrainin,SoftwareType,DateUTC
2013-11-28 00:03:00,35.8,31.4,29.36,SW,225,4.2,-999.0,84,-99.99,,,0.00,Acu-Link.com,2013-11-28 05:03:00,
2013-11-28 00:18:00,35.8,31.7,29.39,WNW,292,6.3,-999.0,85,-99.99,,,0.00,Acu-Link.com,2013-11-28 05:18:00,
2013-11-28 00:33:00,35.1,31.9,29.40,NW,315,4.2,-999.0,88,-99.99,,,0.00,Acu-Link.com,2013-11-28 05:33:00,
2013-11-28 00:48:00,34.9,30.9,29.42,West,270,6.3,-999.0,85,-99.99,,,0.00,Acu-Link.com,2013-11-28 05:48:00,
2013-11-28 01:03:00,35.1,30.8,29.43,WNW,292,5.8,-999.0,84,-99.99,,,0.00,Acu-Link.com,2013-11-28 06:03:00,
2013-11-28 01:19:00,34.9,30.0,29.44,North,0,7.8,-999.0,82,-99.99,,,0.00,Acu-Link.com,2013-11-28 06:19:00,
2013-11-28 01:34:00,34.3,29.1,29.45,NW,315,5.3,-999.0,81,-99.99,,,0.00,Acu-Link.com,2013-11-28 06:34:00,
2013-11-28 01:49:00,34.0,27.6,29.47,SSW,202,5.8,-999.0,77,-99.99,,,0.00,Acu-Link.com,2013-11-28 06:49:00,
2013-11-28 02:04:00,33.8,27.7,29.50,WNW,292,10.9,-999.0,78,-99.99,,,0.00,Acu-Link.com,2013-11-28 07:04:00,
2013-11-28 02:20:00,33.8,27.4,29.50,WNW,292,6.3,-999.0,77,-99.99,,,0.00,Acu-Link.com,2013-11-28 07:20:00,
2013-11-28 02:35:00,33.4,26.3,29.50,NNW,337,4.7,-999.0,75,-99.99,,,0.00,Acu-Link.com,2013-11-28 07:35:00,
2013-11-28 02:50:00,33.1,26.1,29.52,SW,225,7.3,-999.0,75,-99.99,,,0.00,Acu-Link.com,2013-11-28 07:50:00,
2013-11-28 03:05:00,32.9,25.2,29.53,West,270,12.5,-999.0,73,-99.99,,,0.00,Acu-Link.com,2013-11-28 08:05:00,
2013-11-28 03:20:00,32.7,24.7,29.56,West,270,6.8,-999.0,72,-99.99,,,0.00,Acu-Link.com,2013-11-28 08:20:00,
2013-11-28 03:36:00,32.4,23.7,29.57,NNW,337,4.7,-999.0,70,-99.99,,,0.00,Acu-Link.com,2013-11-28 08:36:00,
2013-11-28 03:51:00,32.2,23.9,29.58,NW,315,3.7,-999.0,71,-99.99,,,0.00,Acu-Link.com,2013-11-28 08:51:00,
2013-11-28 04:06:00,32.0,23.3,29.60,NE,45,9.4,-999.0,70,-99.99,,,0.00,Acu-Link.com,2013-11-28 09:06:00,
2013-11-28 04:22:00,31.6,21.9,29.62,WNW,292,8.3,-999.0,67,-99.99,,,0.00,Acu-Link.com,2013-11-28 09:22:00,
2013-11-28 04:37:00,31.1,21.8,29.64,WSW,247,4.7,-999.0,68,-99.99,,,0.00,Acu-Link.com,2013-11-28 09:37:00,
2013-11-28 04:52:00,30.6,21.0,29.65,NW,315,8.9,-999.0,67,-99.99,,,0.00,Acu-Link.com,2013-11-28 09:52:00,
2013-11-28 05:08:00,29.8,19.9,29.67,NW,315,6.3,-999.0,66,-99.99,,,0.00,Acu-Link.com,2013-11-28 10:08:00,
2013-11-28 05:23:00,29.8,19.9,29.69,WNW,292,6.8,-999.0,66,-99.99,,,0.00,Acu-Link.com,2013-11-28 10:23:00,
2013-11-28 05:38:00,29.1,18.5,29.72,West,270,7.8,-999.0,64,-99.99,,,0.00,Acu-Link.com,2013-11-28 10:38:00,
2013-11-28 05:53:00,28.9,17.9,29.73,SSE,157,6.3,-999.0,63,-99.99,,,0.00,Acu-Link.com,2013-11-28 10:53:00,
2013-11-28 06:08:00,28.6,17.3,29.74,WNW,292,7.3,-999.0,62,-99.99,,,0.00,Acu-Link.com,2013-11-28 11:08:00,
2013-11-28 06:24:00,28.4,17.4,29.76,NW,315,7.8,-999.0,63,-99.99,,,0.00,Acu-Link.com,2013-11-28 11:24:00,
2013-11-28 06:39:00,28.6,18.0,29.77,SW,225,4.2,-999.0,64,-99.99,,,0.00,Acu-Link.com,2013-11-28 11:39:00,
2013-11-28 06:54:00,28.6,17.6,29.79,North,0,3.2,-999.0,63,-99.99,,,0.00,Acu-Link.com,2013-11-28 11:54:00,
2013-11-28 07:10:00,28.6,18.0,29.81,NNW,337,7.3,-999.0,64,-99.99,,,0.00,Acu-Link.com,2013-11-28 12:10:00,
2013-11-28 07:25:00,28.4,17.4,29.81,WNW,292,7.8,-999.0,63,-99.99,,,0.00,Acu-Link.com,2013-11-28 12:25:00,
2013-11-28 07:40:00,29.3,17.2,29.85,NW,315,3.7,-999.0,60,-99.99,,,0.00,Acu-Link.com,2013-11-28 12:40:00,
2013-11-28 07:55:00,29.1,17.4,29.84,NNE,22,4.7,-999.0,61,-99.99,,,0.00,Acu-Link.com,2013-11-28 12:55:00,
2013-11-28 08:11:00,29.5,17.0,29.85,ESE,112,4.7,-999.0,59,-99.99,,,0.00,Acu-Link.com,2013-11-28 13:11:00,
2013-11-28 08:26:00,29.7,16.8,29.86,West,270,3.7,-999.0,58,-99.99,,,0.00,Acu-Link.com,2013-11-28 13:26:00,
2013-11-28 08:41:00,29.7,16.8,29.87,WNW,292,8.3,-999.0,58,-99.99,,,0.00,Acu-Link.com,2013-11-28 13:41:00,
2013-11-28 08:56:00,31.5,17.2,29.88,West,270,4.7,-999.0,55,-99.99,,,0.00,Acu-Link.com,2013-11-28 13:56:00,
2013-11-28 09:12:00,32.5,16.9,29.88,West,270,2.2,-999.0,52,-99.99,,,0.00,Acu-Link.com,2013-11-28 14:12:00,
2013-11-28 09:27:00,32.9,15.4,29.90,West,270,6.3,-999.0,48,-99.99,,,0.00,Acu-Link.com,2013-11-28 14:27:00,
2013-11-28 09:42:00,32.9,13.9,29.91,NW,315,4.7,-999.0,45,-99.99,,,0.00,Acu-Link.com,2013-11-28 14:42:00,
2013-11-28 09:57:00,32.7,11.1,29.94,WNW,292,10.4,-999.0,40,-99.99,,,0.00,Acu-Link.com,2013-11-28 14:57:00,
2013-11-28 10:12:00,32.9,12.4,29.93,SSW,202,5.8,-999.0,42,-99.99,,,0.00,Acu-Link.com,2013-11-28 15:12:00,
2013-11-28 10:28:00,33.3,12.2,29.94,NNW,337,6.3,-999.0,41,-99.99,,,0.00,Acu-Link.com,2013-11-28 15:28:00,
2013-11-28 10:43:00,35.1,13.2,29.95,NNE,22,2.7,-999.0,40,-99.99,,,0.00,Acu-Link.com,2013-11-28 15:43:00,
2013-11-28 10:58:00,35.1,12.1,29.95,West,270,4.2,-999.0,38,-99.99,,,0.00,Acu-Link.com,2013-11-28 15:58:00,
2013-11-28 11:13:00,36.3,13.2,29.96,ENE,67,4.7,-999.0,38,-99.99,,,0.00,Acu-Link.com,2013-11-28 16:13:00,
2013-11-28 11:28:00,35.4,11.1,29.97,West,270,6.8,-999.0,36,-99.99,,,0.00,Acu-Link.com,2013-11-28 16:28:00,
2013-11-28 11:44:00,36.7,12.3,29.97,WNW,292,4.2,-999.0,36,-99.99,,,0.00,Acu-Link.com,2013-11-28 16:44:00,
2013-11-28 11:59:00,36.3,11.9,29.98,ESE,112,14.5,-999.0,36,-99.99,,,0.00,Acu-Link.com,2013-11-28 16:59:00,
2013-11-28 12:14:00,35.1,10.9,29.97,WNW,292,7.3,-999.0,36,-99.99,,,0.00,Acu-Link.com,2013-11-28 17:14:00,
2013-11-28 12:30:00,36.1,13.0,29.97,SW,225,5.8,-999.0,38,-99.99,,,0.00,Acu-Link.com,2013-11-28 17:30:00,
2013-11-28 12:45:00,36.7,11.0,29.98,NNW,337,5.3,-999.0,34,-99.99,,,0.00,Acu-Link.com,2013-11-28 17:45:00,
2013-11-28 13:00:00,36.1,9.8,29.98,WNW,292,4.7,-999.0,33,-99.99,,,0.00,Acu-Link.com,2013-11-28 18:00:00,
2013-11-28 13:15:00,35.2,8.3,30.00,NNE,22,7.8,-999.0,32,-99.99,,,0.00,Acu-Link.com,2013-11-28 18:15:00,
2013-11-28 13:30:00,33.8,6.4,30.01,ESE,112,13.5,-999.0,31,-99.99,,,0.00,Acu-Link.com,2013-11-28 18:30:00,
2013-11-28 13:46:00,33.4,8.1,30.02,NW,315,7.8,-999.0,34,-99.99,,,0.00,Acu-Link.com,2013-11-28 18:46:00,
2013-11-28 14:01:00,32.2,5.0,30.02,South,180,2.2,-999.0,31,-99.99,,,0.00,Acu-Link.com,2013-11-28 19:01:00,
2013-11-28 14:16:00,32.2,5.0,30.03,ENE,67,4.2,-999.0,31,-99.99,,,0.00,Acu-Link.com,2013-11-28 19:16:00,
2013-11-28 14:32:00,32.0,6.8,30.05,West,270,4.2,-999.0,34,-99.99,,,0.00,Acu-Link.com,2013-11-28 19:32:00,
2013-11-28 14:47:00,30.6,5.0,30.04,NW,315,8.9,-999.0,33,-99.99,,,0.00,Acu-Link.com,2013-11-28 19:47:00,
2013-11-28 15:02:00,29.7,5.4,30.05,North,0,7.3,-999.0,35,-99.99,,,0.00,Acu-Link.com,2013-11-28 20:02:00,
2013-11-28 15:17:00,29.3,5.7,30.06,West,270,5.8,-999.0,36,-99.99,,,0.00,Acu-Link.com,2013-11-28 20:17:00,
2013-11-28 15:32:00,29.1,6.1,30.06,West,270,7.8,-999.0,37,-99.99,,,0.00,Acu-Link.com,2013-11-28 20:32:00,
2013-11-28 15:48:00,28.9,7.6,30.08,ESE,112,1.1,-999.0,40,-99.99,,,0.00,Acu-Link.com,2013-11-28 20:48:00,
2013-11-28 16:03:00,28.4,7.7,30.09,SW,225,1.1,-999.0,41,-99.99,,,0.00,Acu-Link.com,2013-11-28 21:03:00,
2013-11-28 16:18:00,27.9,6.2,30.12,NNW,337,4.7,-999.0,39,-99.99,,,0.00,Acu-Link.com,2013-11-28 21:18:00,
2013-11-28 16:33:00,27.5,6.9,30.12,West,270,3.7,-999.0,41,-99.99,,,0.00,Acu-Link.com,2013-11-28 21:33:00,
2013-11-28 16:48:00,27.3,6.2,30.15,NNW,337,4.2,-999.0,40,-99.99,,,0.00,Acu-Link.com,2013-11-28 21:48:00,
2013-11-28 17:04:00,27.1,7.1,30.15,SSE,157,1.1,-999.0,42,-99.99,,,0.00,Acu-Link.com,2013-11-28 22:04:00,
2013-11-28 17:19:00,26.8,6.3,30.16,WNW,292,3.7,-999.0,41,-99.99,,,0.00,Acu-Link.com,2013-11-28 22:19:00,
2013-11-28 17:34:00,26.8,7.3,30.18,SW,225,2.7,-999.0,43,-99.99,,,0.00,Acu-Link.com,2013-11-28 22:34:00,
2013-11-28 17:49:00,26.2,6.8,30.19,WNW,292,5.3,-999.0,43,-99.99,,,0.00,Acu-Link.com,2013-11-28 22:49:00,
2013-11-28 18:05:00,26.1,7.2,30.19,West,270,0.0,-999.0,44,-99.99,,,0.00,Acu-Link.com,2013-11-28 23:05:00,
2013-11-28 18:20:00,25.3,7.5,30.20,NNW,337,1.7,-999.0,46,-99.99,,,0.00,Acu-Link.com,2013-11-28 23:20:00,
2013-11-28 18:35:00,25.2,7.8,30.21,NNW,337,0.0,-999.0,47,-99.99,,,0.00,Acu-Link.com,2013-11-28 23:35:00,
2013-11-28 18:50:00,24.8,7.9,30.22,West,270,2.7,-999.0,48,-99.99,,,0.00,Acu-Link.com,2013-11-28 23:50:00,
2013-11-28 19:05:00,24.8,7.9,30.23,NW,315,0.0,-999.0,48,-99.99,,,0.00,Acu-Link.com,2013-11-29 00:05:00,
2013-11-28 19:21:00,24.3,8.4,30.24,NNW,337,0.0,-999.0,50,-99.99,,,0.00,Acu-Link.com,2013-11-29 00:21:00,
2013-11-28 19:36:00,24.1,9.1,30.24,South,180,0.0,-999.0,52,-99.99,,,0.00,Acu-Link.com,2013-11-29 00:36:00,
2013-11-28 19:51:00,23.0,8.9,30.24,SW,225,0.0,-999.0,54,-99.99,,,0.00,Acu-Link.com,2013-11-29 00:51:00,
2013-11-28 20:06:00,22.3,9.4,30.23,WNW,292,0.0,-999.0,57,-99.99,,,0.00,Acu-Link.com,2013-11-29 01:06:00,
2013-11-28 20:21:00,22.3,9.4,30.23,ESE,112,0.0,-999.0,57,-99.99,,,0.00,Acu-Link.com,2013-11-29 01:21:00,
2013-11-28 20:37:00,22.5,9.6,30.24,West,270,0.0,-999.0,57,-99.99,,,0.00,Acu-Link.com,2013-11-29 01:37:00,
2013-11-28 20:52:00,21.9,9.4,30.24,WNW,292,0.0,-999.0,58,-99.99,,,0.00,Acu-Link.com,2013-11-29 01:52:00,
2013-11-28 21:07:00,21.6,9.9,30.25,NW,315,0.0,-999.0,60,-99.99,,,0.00,Acu-Link.com,2013-11-29 02:07:00,
2013-11-28 21:22:00,21.7,10.0,30.25,SSW,202,0.0,-999.0,60,-99.99,,,0.00,Acu-Link.com,2013-11-29 02:22:00,
2013-11-28 21:37:00,21.9,10.9,30.26,SSE,157,0.0,-999.0,62,-99.99,,,0.00,Acu-Link.com,2013-11-29 02:37:00,
2013-11-28 21:53:00,21.6,10.6,30.26,South,180,0.0,-999.0,62,-99.99,,,0.00,Acu-Link.com,2013-11-29 02:53:00,
2013-11-28 22:08:00,21.9,12.0,30.26,SSE,157,0.0,-999.0,65,-99.99,,,0.00,Acu-Link.com,2013-11-29 03:08:00,
2013-11-28 22:23:00,21.4,11.5,30.27,SW,225,0.0,-999.0,65,-99.99,,,0.00,Acu-Link.com,2013-11-29 03:23:00,
2013-11-28 22:38:00,21.6,12.0,30.27,SW,225,0.0,-999.0,66,-99.99,,,0.00,Acu-Link.com,2013-11-29 03:38:00,
2013-11-28 22:53:00,22.3,12.7,30.28,SW,225,0.0,-999.0,66,-99.99,,,0.00,Acu-Link.com,2013-11-29 03:53:00,
2013-11-28 23:09:00,22.3,12.7,30.28,West,270,0.0,-999.0,66,-99.99,,,0.00,Acu-Link.com,2013-11-29 04:09:00,
2013-11-28 23:24:00,22.5,12.2,30.30,SSW,202,0.0,-999.0,64,-99.99,,,0.00,Acu-Link.com,2013-11-29 04:24:00,
2013-11-28 23:39:00,22.1,11.8,30.30,NNW,337,0.0,-999.0,64,-99.99,,,0.00,Acu-Link.com,2013-11-29 04:39:00,
2013-11-28 23:55:00,22.8,12.8,30.30,ENE,67,0.0,-999.0,65,-99.99,,,0.00,Acu-Link.com,2013-11-29 04:55:00,